Timeline UpdatesTrip UpdatesNews PostsPvt Posts♥♥Travel TipsAdmin PostsConv PostsFollowed PostsChat RequestsBlog PostsPNR Posts

Disclaimer
Search
 
 
Fri Oct 24, 2014 16:51:35 ISTHomeTrainsΣChainsAtlasPNRForumGalleryNewsFAQTripsMembersLoginFeedback
No Recent News for this Train
Other Trains in the News **new
Latest...
.
Thu Apr 24, 2014 (08:49PM)
⇐ Return Journey: Train# 13006

13005/Howrah - Amritsar (Punjab) Mail

Time-Table HAS CHANGED.
Sep 01 2014 (11:37PM)
Change Departure Station:
Change Arrival Station:
Post a Train Travel TipPost a Train Travel Tip **new
Post a Comment/Question/Picture/VideoPost a Comment/Question/Picture/Video
Pantry/Catering
✓ Pantry Car Avbl
✓ Catering Avbl
Tea: Rs 7; Samosa: Rs 15/pair.
RSA - Rake Sharing
No RSA.
Rake/Coach Composition
LOCO-SLR-GS-GS-S1-S2-S3-S4-S5-S6-S7-S8-S9-S10-PC-B1-B2-B3-A1-HA1-GS-MILITARY-SLR(Ladies)
Loco
HWH/MGS WAP-4 (HWH-MGS) SGUJ WDP-4B (MGS-LKO) GZB WAP-4/5 (LKO-ASR)
News    PNR    Forum    Time-Table    Availability    Fare Chart    Map    Arr/Dep History    Trips    Gallery    ΣChains    X/O    Timeline    
Travel Time: 12h 57m    20 halts    Distance: 743 km    Avg Speed: 57 km/hr
Type: Mail/Express
Zone: ER/Eastern
Departs @ 19:10 (Avg 14m late)
Platform# 8
SMTWTFS
Kolkata Howrah Junction/HWH 
Arrives @ 08:07 +1 night (Avg 38m late)
Platform# 2
SMTWTFS
Mughal Sarai Junction/MGS 

20 halts. 176 intermediate Stations between Kolkata Howrah Junction and Mughal Sarai Junction

Show ALL intermediate Stations  Show Old Time-Table

#TrkCodeStation NameX/OArrivesAvgDepartsAvgHaltPFDay#KmSpeedElevZoneAddress
1/==/HWHKolkata Howrah Junction (23)»  -19:10+14810.08610mERHowrah 711101, West Bengal
2/==/BWNBarddhaman Junction (8)X  20:16+2920:21+295m2194.47634mERDist - Barddhaman, West Bengal
3/==/DGRDurgapur (5)XO  21:11+3421:14+333m31157.99171mERDurgapur, West Bengal
4/==/RNGRaniGanj (4)  21:30+4021:31+411m--1182.26092mERRaniganj, West Bengal
5/==/ASNAsansol Junction (7)X  21:49+4021:54+405m31200.463113mERDist - Bardhaman, West Bengal
6/==/CRJChittaranjan (3)X  22:17 22:18+4922:19+502 1m31225.587182mERMihijam, Jharkhand
7/==/MDPMadhupur Junction (4)X  22:58+5923:02+584m11281.973254mER06432-224478, Jharkhand
8/==/JSMEJasidih Junction (5)X  23:26+1:0223:30+584m--1310.935271mERJasidih, Jharkhand
9/==/JAJJhajha (4)X  00:45+2700:50+295m--2355.086143mECRJhajha, Bihar
10/==/KIULKiul Junction (5)  01:27+4701:32+455m--2408.35753mECRDist. Lakhisarai, Bihar
11/==/MKAMokama Junction (4)  02:08+5202:12+514m--2442.57348mECRPatna, Bihar
12/==/BKPBakhtiyarpur Junction (5)  02:48+5102:50+522m--2486.45851mECRPatna, Bihar
13/==/PNCPatna Saheb (3)  03:22 03:27+5403:24 03:29+582m--2521.91459mECRPatna 800008, Bihar
14/==/PNBEPatna Junction (10)X  04:10+3804:20+4210m62531.83857mECRPatna 800001, Bihar
15/==/DNRDanapur (5)X  04:35+4104:37+412m--2541.18258mECRKhagaul, Bihar
16/==/ARAAra Junction (3)  05:06+5305:11+515m12580.710163mECRDistt: Bhojpur Ph 06182-233411, Bihar
17/==/DUREDumraon (3)  05:42+5805:43+591m22632.86170mECRDumraon, Bihar
18/==/BXRBuxar (3)X  05:59+5906:03+584m22649.26767mECRBuxar, Bihar
19/==/GMRGahmar (2)  06:21+1:0006:22+1:011m--2669.36968mECRDistt: Ghazipur, Uttar Pradesh
20/==/DLNDildarnagar Junction (2)X  06:36+5906:38+592m22685.49072mECRDildarnagar, Uttar Pradesh
21/==/ZNAZamania (2)X  06:48 06:47+1:0306:49+1:041 2m12698.93477mECRGhazipur, Uttar Pradesh
22/==/MGSMughal Sarai Junction (8)•X  08:07+3808:27+4020m22743.12483mECRDistt: Chandauli Pin 232101, Uttar Pradesh
23/==/KEIKashi (3)X  08:55+4608:56+491m12754.12085mNRVaranasi, Uttar Pradesh
24/==%BSBVaranasi Junction (9)  09:12+4909:27+4915m82759.47282mNRVaranasi 221002, Uttar Pradesh
25%==%BOYBhadohi (2)  10:04+1:0810:05+1:121m--2803.96590mNRUttar Pradesh 221401, Uttar Pradesh
26%=-|JNHJanghai Junction (3)  10:33+1:1710:34+1:191m--2834.35992mNRUttar Pradesh 212401, Uttar Pradesh
27|--|BSEBadshahpur (2)  10:51+1:1910:52+1:201m--2851.16693mNRMungra Badshahpur, Uttar Pradesh
28|--|PBHPratapgarh Junction (3)X  11:25+1:2311:30+1:255m22887.57297mNRPratapgarh, Uttar Pradesh
29|-=!AMEAmethi (2)  11:59+1:2912:00+1:301m--2922.553107mNRAmethi., Uttar Pradesh
30!==!GNGGauriGanj (2)  12:15+1:3512:16+1:371m--2935.860110mNRSH 34, Uttar Pradesh
31!==!JAISJais (2)X  12:34+1:4112:36+1:412m--2953.851108mNRRae Bareli, Uttar Pradesh
32!==!RBLRae Bareli Junction (4)X  13:10+1:3613:15+1:365m--2982.663116mNRRaebareli, Uttar Pradesh
33!==!BCNBachhrawan (2)X  13:45 13:44+1:3713:47 13:46+1:392m--21013.230124mNRLucknow, Uttar Pradesh
34/==/LKOLucknow Charbagh NR (9)XO  15:20+1:0615:45+1:0325m621060.563123mNR226004, Uttar Pradesh
35/==/BLMBalamau Junction (4)  16:51+1:1716:53+1:172m--21129.373139mNRBalamau, Uttar Pradesh
36/==/HRIHardoi (5)  17:20+1:1517:23+1:173m121162.363146mNRHardoi, Uttar Pradesh
37/==/ROZARoza Junction (4)X  18:16+1:1318:18+1:142m--21217.937156mNRShahjahanpur, Uttar Pradesh
38/==/SPNShahjahanpur Junction (3)X  18:30+1:1318:35+1:135m--21225.277156mNRShahjahanpur, Uttar Pradesh
39/==/BEBareilly Junction (4)X  19:32 19:30+1:2419:37 19:35+1:255m221295.771174mNRBareilly, Uttar Pradesh
40/==/RMURampur Junction (3)X  20:17 20:28+1:3120:18 20:33+1:321 5m--21358.839190mNRRampur, Uttar Pradesh
41/==/MBMoradabad Junction (7)X  21:15+1:3421:25+1:3410m221386.065201mNRMoradabad, Uttar Pradesh
42/==/DPRDhampur  22:20+1:3322:22+1:332m--21445.859236mNRDhampur, Uttar Pradesh
43/==/NGGNagina (3)O  22:40 22:39+1:3322:42 22:40+1:342 1m--21462.534247mNRNagina, Uttar Pradesh
44/==/NBDNajibabad Junction (3)X  23:20+1:1523:25+1:155m221485.068269mNRNajibabad, Uttar Pradesh
45/==/LRJLaksar Junction (4)  00:02+1:1800:07+1:165m231526.963238mNRLaksar, Uttarakhand
46/==/RKRoorkee (3)  00:21 00:24+1:1800:26 00:25+1:195 1m331544.742264mNRRoorkee - 247667, Uttarakhand
47/==/SRESaharanpur Junction (6)XO  01:15+1:2601:25+1:3010m--31579.462276mNRSaharanpur, Uttar Pradesh
48/==/JUDYamunanagar-Jagadhri (3)X  01:54+1:3401:55+1:361m331609.551275mNRYamunanagar, Haryana
49/==/UMBAmbala Cantt. Junction (7)XO  02:55+1:2803:15+1:2320m231660.556278mNRAmbala 133001, Haryana
50/==/RPJRajpura Junction (3)X  03:45+1:2903:47+1:292m131688.648272mNRNH-1, Punjab
51/==/LDHLudhiana Junction (7)X  05:35+1:0905:45+1:3610m331774.233246mNRLudhiana 141001, Punjab
52/==/PHRPhillaur Junction (3)X  06:09+1:3306:11+1:332m231787.275246mNRPhillaur, Punjab
53/==/PGWPhagwara Junction (3)X  06:29+1:3106:31+1:312m231809.870245mNRPhagwara, Punjab
54/==/JRCJalandhar Cantt. Junction (3)X  06:45+1:3306:47+1:342m131826.197239mNRNear Rama Mandi, Punjab
55/==/JUCJalandhar City Junction (5)X  06:50+1:3107:00+1:2910m131830.949239mNRJalandhar 144001, Punjab
56/==/BEASBeas Junction (2)X  07:44+1:2407:46+1:252m131867.037238mNRBeas, Punjab
57/==/ASRAmritsar Junction (5)  08:55+1:03-331910.1-233mNRAmritsar 143002, Punjab
Scroll to Top
Scroll to Bottom